sensor_id;sensor_type;location;lat;lon;timestamp;P1;durP1;ratioP1;P2;durP2;ratioP2
2680;SDS011;1350;42.134;24.708;2023-07-16T00:01:40;7.70;;;5.00;;
2680;SDS011;1350;42.134;24.708;2023-07-16T00:04:07;9.47;;;5.83;;
2680;SDS011;1350;42.134;24.708;2023-07-16T00:06:35;13.37;;;5.60;;
2680;SDS011;1350;42.134;24.708;2023-07-16T00:09:01;8.77;;;5.00;;
2680;SDS011;1350;42.134;24.708;2023-07-16T00:11:29;10.17;;;6.00;;
2680;SDS011;1350;42.134;24.708;2023-07-16T00:13:56;8.83;;;5.57;;
2680;SDS011;1350;42.134;24.708;2023-07-16T00:16:22;8.40;;;5.93;;
2680;SDS011;1350;42.134;24.708;2023-07-16T00:18:49;9.03;;;6.10;;
2680;SDS011;1350;42.134;24.708;2023-07-16T00:21:16;9.60;;;5.43;;
2680;SDS011;1350;42.134;24.708;2023-07-16T00:23:44;8.87;;;5.23;;
2680;SDS011;1350;42.134;24.708;2023-07-16T00:26:11;8.70;;;5.63;;
2680;SDS011;1350;42.134;24.708;2023-07-16T00:28:38;14.03;;;5.87;;
2680;SDS011;1350;42.134;24.708;2023-07-16T00:31:05;9.37;;;6.10;;
2680;SDS011;1350;42.134;24.708;2023-07-16T00:33:31;7.80;;;5.70;;
2680;SDS011;1350;42.134;24.708;2023-07-16T00:35:58;8.90;;;5.50;;
2680;SDS011;1350;42.134;24.708;2023-07-16T00:38:25;10.63;;;6.10;;
2680;SDS011;1350;42.134;24.708;2023-07-16T00:40:53;8.90;;;5.83;;
2680;SDS011;1350;42.134;24.708;2023-07-16T00:43:20;8.23;;;5.13;;
2680;SDS011;1350;42.134;24.708;2023-07-16T00:45:47;10.27;;;4.70;;
2680;SDS011;1350;42.134;24.708;2023-07-16T00:48:13;11.07;;;4.90;;
2680;SDS011;1350;42.134;24.708;2023-07-16T00:50:41;8.53;;;5.03;;
2680;SDS011;1350;42.134;24.708;2023-07-16T00:53:08;10.03;;;5.53;;
2680;SDS011;1350;42.134;24.708;2023-07-16T00:55:35;8.53;;;5.10;;
2680;SDS011;1350;42.134;24.708;2023-07-16T00:58:04;7.60;;;5.47;;
2680;SDS011;1350;42.134;24.708;2023-07-16T01:00:32;8.03;;;5.40;;
2680;SDS011;1350;42.134;24.708;2023-07-16T01:02:59;7.57;;;5.40;;
2680;SDS011;1350;42.134;24.708;2023-07-16T01:05:28;9.13;;;5.43;;
2680;SDS011;1350;42.134;24.708;2023-07-16T01:08:12;8.50;;;5.20;;
2680;SDS011;1350;42.134;24.708;2023-07-16T01:10:42;9.37;;;5.13;;
2680;SDS011;1350;42.134;24.708;2023-07-16T01:13:11;7.63;;;5.40;;
2680;SDS011;1350;42.134;24.708;2023-07-16T01:15:38;13.10;;;5.23;;
2680;SDS011;1350;42.134;24.708;2023-07-16T01:18:05;15.00;;;6.10;;
2680;SDS011;1350;42.134;24.708;2023-07-16T01:20:32;12.07;;;5.60;;
2680;SDS011;1350;42.134;24.708;2023-07-16T01:23:04;13.37;;;6.00;;
2680;SDS011;1350;42.134;24.708;2023-07-16T01:25:47;8.00;;;5.80;;
2680;SDS011;1350;42.134;24.708;2023-07-16T01:28:32;9.30;;;6.37;;
2680;SDS011;1350;42.134;24.708;2023-07-16T01:31:12;10.43;;;5.40;;
2680;SDS011;1350;42.134;24.708;2023-07-16T01:33:39;10.60;;;5.80;;
2680;SDS011;1350;42.134;24.708;2023-07-16T01:36:08;9.23;;;5.60;;
2680;SDS011;1350;42.134;24.708;2023-07-16T01:38:35;10.80;;;6.47;;
2680;SDS011;1350;42.134;24.708;2023-07-16T01:41:02;10.40;;;6.03;;
2680;SDS011;1350;42.134;24.708;2023-07-16T01:43:29;11.80;;;6.80;;
2680;SDS011;1350;42.134;24.708;2023-07-16T01:45:56;9.67;;;5.30;;
2680;SDS011;1350;42.134;24.708;2023-07-16T01:48:31;11.73;;;6.07;;
2680;SDS011;1350;42.134;24.708;2023-07-16T01:50:59;13.00;;;5.90;;
2680;SDS011;1350;42.134;24.708;2023-07-16T01:53:27;10.80;;;6.40;;
2680;SDS011;1350;42.134;24.708;2023-07-16T01:55:53;8.27;;;5.70;;
2680;SDS011;1350;42.134;24.708;2023-07-16T01:58:20;8.27;;;5.03;;
2680;SDS011;1350;42.134;24.708;2023-07-16T02:00:47;8.33;;;6.13;;
2680;SDS011;1350;42.134;24.708;2023-07-16T02:03:15;8.47;;;5.83;;
2680;SDS011;1350;42.134;24.708;2023-07-16T02:05:43;12.90;;;6.10;;
2680;SDS011;1350;42.134;24.708;2023-07-16T02:08:10;12.37;;;5.47;;
2680;SDS011;1350;42.134;24.708;2023-07-16T02:10:37;9.33;;;6.30;;
2680;SDS011;1350;42.134;24.708;2023-07-16T02:13:03;9.67;;;5.73;;
2680;SDS011;1350;42.134;24.708;2023-07-16T02:15:30;7.73;;;5.90;;
2680;SDS011;1350;42.134;24.708;2023-07-16T02:17:57;9.93;;;6.00;;
2680;SDS011;1350;42.134;24.708;2023-07-16T02:20:24;8.97;;;6.10;;
2680;SDS011;1350;42.134;24.708;2023-07-16T02:22:52;9.00;;;6.20;;
2680;SDS011;1350;42.134;24.708;2023-07-16T02:25:19;9.43;;;6.00;;
2680;SDS011;1350;42.134;24.708;2023-07-16T02:27:45;10.30;;;6.60;;
2680;SDS011;1350;42.134;24.708;2023-07-16T02:30:13;11.80;;;6.50;;
2680;SDS011;1350;42.134;24.708;2023-07-16T02:32:40;8.33;;;6.70;;
2680;SDS011;1350;42.134;24.708;2023-07-16T02:35:07;10.17;;;6.47;;
2680;SDS011;1350;42.134;24.708;2023-07-16T02:37:34;11.07;;;7.20;;
2680;SDS011;1350;42.134;24.708;2023-07-16T02:40:02;10.00;;;7.00;;
2680;SDS011;1350;42.134;24.708;2023-07-16T02:42:30;8.63;;;5.63;;
2680;SDS011;1350;42.134;24.708;2023-07-16T02:44:56;12.80;;;6.67;;
2680;SDS011;1350;42.134;24.708;2023-07-16T02:47:23;11.00;;;6.33;;
2680;SDS011;1350;42.134;24.708;2023-07-16T02:49:50;12.47;;;6.63;;
2680;SDS011;1350;42.134;24.708;2023-07-16T02:52:17;12.20;;;7.50;;
2680;SDS011;1350;42.134;24.708;2023-07-16T02:54:44;8.10;;;5.90;;
2680;SDS011;1350;42.134;24.708;2023-07-16T02:57:12;12.20;;;6.93;;
2680;SDS011;1350;42.134;24.708;2023-07-16T02:59:39;10.30;;;6.63;;
2680;SDS011;1350;42.134;24.708;2023-07-16T03:02:06;11.03;;;7.47;;
2680;SDS011;1350;42.134;24.708;2023-07-16T03:04:32;13.93;;;6.80;;
2680;SDS011;1350;42.134;24.708;2023-07-16T03:06:59;9.40;;;6.73;;
2680;SDS011;1350;42.134;24.708;2023-07-16T03:09:26;11.70;;;7.40;;
2680;SDS011;1350;42.134;24.708;2023-07-16T03:11:52;10.50;;;6.60;;
2680;SDS011;1350;42.134;24.708;2023-07-16T03:14:21;12.43;;;7.90;;
2680;SDS011;1350;42.134;24.708;2023-07-16T03:16:47;9.60;;;7.80;;
2680;SDS011;1350;42.134;24.708;2023-07-16T03:19:14;12.73;;;7.70;;
2680;SDS011;1350;42.134;24.708;2023-07-16T03:21:41;9.30;;;6.77;;
2680;SDS011;1350;42.134;24.708;2023-07-16T03:24:07;12.20;;;7.40;;
2680;SDS011;1350;42.134;24.708;2023-07-16T03:26:34;11.37;;;6.90;;
2680;SDS011;1350;42.134;24.708;2023-07-16T03:29:01;10.73;;;6.73;;
2680;SDS011;1350;42.134;24.708;2023-07-16T03:31:29;10.50;;;7.63;;
2680;SDS011;1350;42.134;24.708;2023-07-16T03:33:56;11.43;;;7.70;;
2680;SDS011;1350;42.134;24.708;2023-07-16T03:36:22;16.77;;;6.90;;
2680;SDS011;1350;42.134;24.708;2023-07-16T03:38:49;11.07;;;6.60;;
2680;SDS011;1350;42.134;24.708;2023-07-16T03:41:16;11.97;;;7.43;;
2680;SDS011;1350;42.134;24.708;2023-07-16T03:43:42;10.20;;;7.20;;
2680;SDS011;1350;42.134;24.708;2023-07-16T03:46:09;10.60;;;6.97;;
2680;SDS011;1350;42.134;24.708;2023-07-16T03:48:37;16.17;;;8.50;;
2680;SDS011;1350;42.134;24.708;2023-07-16T03:51:04;13.63;;;8.17;;
2680;SDS011;1350;42.134;24.708;2023-07-16T03:53:31;12.10;;;7.20;;
2680;SDS011;1350;42.134;24.708;2023-07-16T03:55:57;10.50;;;7.47;;
2680;SDS011;1350;42.134;24.708;2023-07-16T03:58:24;10.50;;;7.60;;
2680;SDS011;1350;42.134;24.708;2023-07-16T04:00:52;16.47;;;7.87;;
2680;SDS011;1350;42.134;24.708;2023-07-16T04:03:19;11.90;;;7.20;;
2680;SDS011;1350;42.134;24.708;2023-07-16T04:05:47;11.50;;;8.60;;
2680;SDS011;1350;42.134;24.708;2023-07-16T04:08:14;11.93;;;8.00;;
2680;SDS011;1350;42.134;24.708;2023-07-16T04:10:41;10.50;;;7.53;;
2680;SDS011;1350;42.134;24.708;2023-07-16T04:13:07;14.90;;;8.60;;
2680;SDS011;1350;42.134;24.708;2023-07-16T04:15:34;10.83;;;7.27;;
2680;SDS011;1350;42.134;24.708;2023-07-16T04:18:01;10.13;;;7.60;;
2680;SDS011;1350;42.134;24.708;2023-07-16T04:20:29;13.60;;;7.50;;
2680;SDS011;1350;42.134;24.708;2023-07-16T04:22:57;14.10;;;8.00;;
2680;SDS011;1350;42.134;24.708;2023-07-16T04:25:23;11.93;;;8.63;;
2680;SDS011;1350;42.134;24.708;2023-07-16T04:27:50;11.00;;;8.17;;
2680;SDS011;1350;42.134;24.708;2023-07-16T04:30:17;15.30;;;8.80;;
2680;SDS011;1350;42.134;24.708;2023-07-16T04:32:43;15.60;;;10.10;;
2680;SDS011;1350;42.134;24.708;2023-07-16T04:35:10;17.13;;;8.93;;
2680;SDS011;1350;42.134;24.708;2023-07-16T04:37:37;11.40;;;8.73;;
2680;SDS011;1350;42.134;24.708;2023-07-16T04:40:06;12.90;;;8.47;;
2680;SDS011;1350;42.134;24.708;2023-07-16T04:42:34;14.63;;;9.47;;
2680;SDS011;1350;42.134;24.708;2023-07-16T04:45:00;14.37;;;9.30;;
2680;SDS011;1350;42.134;24.708;2023-07-16T04:47:27;13.10;;;8.10;;
2680;SDS011;1350;42.134;24.708;2023-07-16T04:49:54;15.27;;;9.37;;
2680;SDS011;1350;42.134;24.708;2023-07-16T04:52:21;15.40;;;8.13;;
2680;SDS011;1350;42.134;24.708;2023-07-16T04:54:48;10.90;;;8.50;;
2680;SDS011;1350;42.134;24.708;2023-07-16T04:57:16;13.37;;;8.80;;
2680;SDS011;1350;42.134;24.708;2023-07-16T04:59:42;10.40;;;8.33;;
2680;SDS011;1350;42.134;24.708;2023-07-16T05:02:09;10.37;;;8.50;;
2680;SDS011;1350;42.134;24.708;2023-07-16T05:04:36;14.47;;;8.47;;
2680;SDS011;1350;42.134;24.708;2023-07-16T05:07:03;11.87;;;7.60;;
2680;SDS011;1350;42.134;24.708;2023-07-16T05:09:30;13.77;;;7.97;;
2680;SDS011;1350;42.134;24.708;2023-07-16T05:11:56;12.20;;;8.03;;
2680;SDS011;1350;42.134;24.708;2023-07-16T05:14:26;13.17;;;7.90;;
2680;SDS011;1350;42.134;24.708;2023-07-16T05:16:54;10.23;;;8.00;;
2680;SDS011;1350;42.134;24.708;2023-07-16T05:19:21;10.40;;;7.67;;
2680;SDS011;1350;42.134;24.708;2023-07-16T05:21:48;10.10;;;7.47;;
2680;SDS011;1350;42.134;24.708;2023-07-16T05:24:14;9.93;;;7.93;;
2680;SDS011;1350;42.134;24.708;2023-07-16T05:26:41;10.03;;;7.20;;
2680;SDS011;1350;42.134;24.708;2023-07-16T05:29:08;16.93;;;7.20;;
2680;SDS011;1350;42.134;24.708;2023-07-16T05:31:36;14.00;;;7.83;;
2680;SDS011;1350;42.134;24.708;2023-07-16T05:34:03;13.60;;;7.87;;
2680;SDS011;1350;42.134;24.708;2023-07-16T05:36:29;10.27;;;7.87;;
2680;SDS011;1350;42.134;24.708;2023-07-16T05:38:56;12.90;;;8.30;;
2680;SDS011;1350;42.134;24.708;2023-07-16T05:41:23;11.83;;;7.50;;
2680;SDS011;1350;42.134;24.708;2023-07-16T05:43:49;15.60;;;7.03;;
2680;SDS011;1350;42.134;24.708;2023-07-16T05:46:16;9.40;;;6.00;;
2680;SDS011;1350;42.134;24.708;2023-07-16T05:48:44;13.03;;;6.67;;
2680;SDS011;1350;42.134;24.708;2023-07-16T05:51:11;11.73;;;7.77;;
2680;SDS011;1350;42.134;24.708;2023-07-16T05:53:38;9.97;;;7.00;;
2680;SDS011;1350;42.134;24.708;2023-07-16T05:56:04;11.07;;;7.20;;
2680;SDS011;1350;42.134;24.708;2023-07-16T05:58:31;9.40;;;7.03;;
2680;SDS011;1350;42.134;24.708;2023-07-16T06:00:58;12.47;;;6.87;;
2680;SDS011;1350;42.134;24.708;2023-07-16T06:03:24;10.43;;;7.20;;
2680;SDS011;1350;42.134;24.708;2023-07-16T06:05:53;8.33;;;6.47;;
2680;SDS011;1350;42.134;24.708;2023-07-16T06:08:19;9.07;;;6.90;;
2680;SDS011;1350;42.134;24.708;2023-07-16T06:10:47;10.80;;;7.20;;
2680;SDS011;1350;42.134;24.708;2023-07-16T06:13:14;11.97;;;7.40;;
2680;SDS011;1350;42.134;24.708;2023-07-16T06:15:41;10.57;;;7.13;;
2680;SDS011;1350;42.134;24.708;2023-07-16T06:18:08;9.40;;;7.53;;
2680;SDS011;1350;42.134;24.708;2023-07-16T06:20:35;10.27;;;7.03;;
2680;SDS011;1350;42.134;24.708;2023-07-16T06:23:03;11.10;;;8.37;;
2680;SDS011;1350;42.134;24.708;2023-07-16T06:25:30;27.20;;;10.07;;
2680;SDS011;1350;42.134;24.708;2023-07-16T06:27:57;12.07;;;7.07;;
2680;SDS011;1350;42.134;24.708;2023-07-16T06:30:23;14.23;;;7.67;;
2680;SDS011;1350;42.134;24.708;2023-07-16T06:32:50;10.90;;;7.93;;
2680;SDS011;1350;42.134;24.708;2023-07-16T06:35:20;12.23;;;8.13;;
2680;SDS011;1350;42.134;24.708;2023-07-16T06:37:46;11.07;;;7.10;;
2680;SDS011;1350;42.134;24.708;2023-07-16T06:40:16;10.27;;;7.30;;
2680;SDS011;1350;42.134;24.708;2023-07-16T06:42:46;11.63;;;7.00;;
2680;SDS011;1350;42.134;24.708;2023-07-16T06:45:12;14.10;;;8.00;;
2680;SDS011;1350;42.134;24.708;2023-07-16T06:47:39;9.80;;;7.97;;
2680;SDS011;1350;42.134;24.708;2023-07-16T06:50:06;18.23;;;7.83;;
2680;SDS011;1350;42.134;24.708;2023-07-16T06:52:33;11.20;;;8.03;;
2680;SDS011;1350;42.134;24.708;2023-07-16T06:55:02;10.93;;;7.73;;
2680;SDS011;1350;42.134;24.708;2023-07-16T06:57:31;9.73;;;7.50;;
2680;SDS011;1350;42.134;24.708;2023-07-16T06:59:58;13.97;;;8.13;;
2680;SDS011;1350;42.134;24.708;2023-07-16T07:02:25;10.63;;;7.27;;
2680;SDS011;1350;42.134;24.708;2023-07-16T07:04:52;8.70;;;6.37;;
2680;SDS011;1350;42.134;24.708;2023-07-16T07:07:18;11.57;;;7.60;;
2680;SDS011;1350;42.134;24.708;2023-07-16T07:09:47;11.97;;;7.23;;
2680;SDS011;1350;42.134;24.708;2023-07-16T07:12:17;11.63;;;8.27;;
2680;SDS011;1350;42.134;24.708;2023-07-16T07:14:46;9.60;;;8.17;;
2680;SDS011;1350;42.134;24.708;2023-07-16T07:17:13;23.50;;;16.70;;
2680;SDS011;1350;42.134;24.708;2023-07-16T07:19:41;11.23;;;7.30;;
2680;SDS011;1350;42.134;24.708;2023-07-16T07:22:08;9.93;;;7.57;;
2680;SDS011;1350;42.134;24.708;2023-07-16T07:24:34;8.87;;;7.50;;
2680;SDS011;1350;42.134;24.708;2023-07-16T07:27:01;9.33;;;7.90;;
2680;SDS011;1350;42.134;24.708;2023-07-16T07:29:28;10.87;;;6.53;;
2680;SDS011;1350;42.134;24.708;2023-07-16T07:31:56;9.70;;;6.63;;
2680;SDS011;1350;42.134;24.708;2023-07-16T07:34:25;12.67;;;6.93;;
2680;SDS011;1350;42.134;24.708;2023-07-16T07:36:51;11.30;;;7.00;;
2680;SDS011;1350;42.134;24.708;2023-07-16T07:39:18;10.57;;;7.20;;
2680;SDS011;1350;42.134;24.708;2023-07-16T07:41:46;10.53;;;7.40;;
2680;SDS011;1350;42.134;24.708;2023-07-16T07:44:13;9.80;;;7.53;;
2680;SDS011;1350;42.134;24.708;2023-07-16T07:46:40;14.27;;;7.67;;
2680;SDS011;1350;42.134;24.708;2023-07-16T07:49:08;13.43;;;6.20;;
2680;SDS011;1350;42.134;24.708;2023-07-16T07:51:35;11.20;;;6.40;;
2680;SDS011;1350;42.134;24.708;2023-07-16T07:54:20;18.37;;;8.07;;
2680;SDS011;1350;42.134;24.708;2023-07-16T07:56:46;10.57;;;6.93;;
2680;SDS011;1350;42.134;24.708;2023-07-16T07:59:13;8.90;;;7.23;;
2680;SDS011;1350;42.134;24.708;2023-07-16T08:01:40;11.70;;;8.53;;
2680;SDS011;1350;42.134;24.708;2023-07-16T08:04:08;11.23;;;6.77;;
2680;SDS011;1350;42.134;24.708;2023-07-16T08:06:35;9.93;;;6.37;;
2680;SDS011;1350;42.134;24.708;2023-07-16T08:09:02;9.40;;;6.50;;
2680;SDS011;1350;42.134;24.708;2023-07-16T08:11:28;9.43;;;5.77;;
2680;SDS011;1350;42.134;24.708;2023-07-16T08:13:55;10.83;;;6.30;;
2680;SDS011;1350;42.134;24.708;2023-07-16T08:16:22;10.70;;;7.07;;
2680;SDS011;1350;42.134;24.708;2023-07-16T08:18:49;11.07;;;7.20;;
2680;SDS011;1350;42.134;24.708;2023-07-16T08:21:17;15.63;;;8.07;;
2680;SDS011;1350;42.134;24.708;2023-07-16T08:23:45;10.60;;;6.30;;
2680;SDS011;1350;42.134;24.708;2023-07-16T08:26:12;7.87;;;6.47;;
2680;SDS011;1350;42.134;24.708;2023-07-16T08:28:39;9.13;;;6.80;;
2680;SDS011;1350;42.134;24.708;2023-07-16T08:31:06;8.30;;;6.03;;
2680;SDS011;1350;42.134;24.708;2023-07-16T08:33:33;11.10;;;6.80;;
2680;SDS011;1350;42.134;24.708;2023-07-16T08:35:59;13.60;;;6.07;;
2680;SDS011;1350;42.134;24.708;2023-07-16T08:38:27;9.10;;;6.30;;
2680;SDS011;1350;42.134;24.708;2023-07-16T08:40:54;9.80;;;6.30;;
2680;SDS011;1350;42.134;24.708;2023-07-16T08:43:21;10.93;;;6.80;;
2680;SDS011;1350;42.134;24.708;2023-07-16T08:45:48;7.83;;;5.43;;
2680;SDS011;1350;42.134;24.708;2023-07-16T08:48:16;10.10;;;6.30;;
2680;SDS011;1350;42.134;24.708;2023-07-16T08:50:43;10.07;;;6.80;;
2680;SDS011;1350;42.134;24.708;2023-07-16T08:53:13;8.80;;;7.50;;
2680;SDS011;1350;42.134;24.708;2023-07-16T08:55:43;10.53;;;6.90;;
2680;SDS011;1350;42.134;24.708;2023-07-16T08:58:11;11.40;;;6.73;;
2680;SDS011;1350;42.134;24.708;2023-07-16T09:00:40;8.60;;;7.40;;
2680;SDS011;1350;42.134;24.708;2023-07-16T09:03:07;8.20;;;5.97;;
2680;SDS011;1350;42.134;24.708;2023-07-16T09:05:34;10.30;;;7.27;;
2680;SDS011;1350;42.134;24.708;2023-07-16T09:08:01;10.63;;;7.50;;
2680;SDS011;1350;42.134;24.708;2023-07-16T09:10:29;10.73;;;8.23;;
2680;SDS011;1350;42.134;24.708;2023-07-16T09:12:57;12.17;;;7.00;;
2680;SDS011;1350;42.134;24.708;2023-07-16T09:15:24;10.70;;;7.70;;
2680;SDS011;1350;42.134;24.708;2023-07-16T09:17:53;8.70;;;6.60;;
2680;SDS011;1350;42.134;24.708;2023-07-16T09:20:20;10.13;;;6.93;;
2680;SDS011;1350;42.134;24.708;2023-07-16T09:22:49;11.10;;;7.20;;
2680;SDS011;1350;42.134;24.708;2023-07-16T09:25:16;12.20;;;6.70;;
2680;SDS011;1350;42.134;24.708;2023-07-16T09:27:43;10.27;;;8.20;;
2680;SDS011;1350;42.134;24.708;2023-07-16T09:30:15;10.33;;;7.50;;
2680;SDS011;1350;42.134;24.708;2023-07-16T09:32:43;10.20;;;6.97;;
2680;SDS011;1350;42.134;24.708;2023-07-16T09:35:11;9.90;;;7.53;;
2680;SDS011;1350;42.134;24.708;2023-07-16T09:37:38;10.87;;;7.50;;
2680;SDS011;1350;42.134;24.708;2023-07-16T09:40:06;9.30;;;7.47;;
2680;SDS011;1350;42.134;24.708;2023-07-16T09:42:35;10.40;;;7.50;;
2680;SDS011;1350;42.134;24.708;2023-07-16T09:45:03;10.47;;;8.63;;
2680;SDS011;1350;42.134;24.708;2023-07-16T09:47:34;9.20;;;6.63;;
2680;SDS011;1350;42.134;24.708;2023-07-16T09:50:02;10.67;;;8.60;;
2680;SDS011;1350;42.134;24.708;2023-07-16T09:52:30;13.10;;;8.57;;
2680;SDS011;1350;42.134;24.708;2023-07-16T09:54:57;18.20;;;9.60;;
2680;SDS011;1350;42.134;24.708;2023-07-16T09:57:28;12.90;;;9.07;;
2680;SDS011;1350;42.134;24.708;2023-07-16T09:59:59;12.33;;;9.27;;
2680;SDS011;1350;42.134;24.708;2023-07-16T10:02:29;13.97;;;8.93;;
2680;SDS011;1350;42.134;24.708;2023-07-16T10:04:59;10.87;;;9.30;;
2680;SDS011;1350;42.134;24.708;2023-07-16T10:07:26;17.13;;;8.43;;
2680;SDS011;1350;42.134;24.708;2023-07-16T10:09:53;12.37;;;9.33;;
2680;SDS011;1350;42.134;24.708;2023-07-16T10:12:22;9.87;;;8.70;;
2680;SDS011;1350;42.134;24.708;2023-07-16T10:14:50;13.00;;;9.20;;
2680;SDS011;1350;42.134;24.708;2023-07-16T10:17:18;13.30;;;8.60;;
2680;SDS011;1350;42.134;24.708;2023-07-16T10:19:46;11.67;;;9.87;;
2680;SDS011;1350;42.134;24.708;2023-07-16T10:22:14;15.10;;;9.97;;
2680;SDS011;1350;42.134;24.708;2023-07-16T10:24:41;10.03;;;8.30;;
2680;SDS011;1350;42.134;24.708;2023-07-16T10:27:13;14.50;;;9.30;;
2680;SDS011;1350;42.134;24.708;2023-07-16T10:29:52;13.97;;;10.03;;
2680;SDS011;1350;42.134;24.708;2023-07-16T10:32:20;10.53;;;9.43;;
2680;SDS011;1350;42.134;24.708;2023-07-16T10:34:46;14.57;;;9.13;;
2680;SDS011;1350;42.134;24.708;2023-07-16T10:37:14;12.63;;;9.83;;
2680;SDS011;1350;42.134;24.708;2023-07-16T10:39:45;10.83;;;9.37;;
2680;SDS011;1350;42.134;24.708;2023-07-16T10:42:12;15.63;;;9.83;;
2680;SDS011;1350;42.134;24.708;2023-07-16T10:44:39;12.50;;;10.10;;
2680;SDS011;1350;42.134;24.708;2023-07-16T10:47:06;16.83;;;9.60;;
2680;SDS011;1350;42.134;24.708;2023-07-16T10:49:33;24.77;;;22.20;;
2680;SDS011;1350;42.134;24.708;2023-07-16T10:52:01;13.63;;;10.87;;
2680;SDS011;1350;42.134;24.708;2023-07-16T10:54:29;13.30;;;11.10;;
2680;SDS011;1350;42.134;24.708;2023-07-16T10:56:56;13.40;;;10.40;;
2680;SDS011;1350;42.134;24.708;2023-07-16T10:59:23;14.63;;;11.10;;
2680;SDS011;1350;42.134;24.708;2023-07-16T11:01:49;17.17;;;12.80;;
2680;SDS011;1350;42.134;24.708;2023-07-16T11:04:17;19.43;;;11.70;;
2680;SDS011;1350;42.134;24.708;2023-07-16T11:06:43;14.50;;;13.00;;
2680;SDS011;1350;42.134;24.708;2023-07-16T11:09:11;18.60;;;12.97;;
2680;SDS011;1350;42.134;24.708;2023-07-16T11:11:39;15.20;;;13.13;;
2680;SDS011;1350;42.134;24.708;2023-07-16T11:14:07;14.63;;;13.17;;
2680;SDS011;1350;42.134;24.708;2023-07-16T11:16:34;15.10;;;12.37;;
2680;SDS011;1350;42.134;24.708;2023-07-16T11:19:03;14.10;;;12.60;;
2680;SDS011;1350;42.134;24.708;2023-07-16T11:21:30;17.80;;;13.20;;
2680;SDS011;1350;42.134;24.708;2023-07-16T11:24:07;16.57;;;12.43;;
2680;SDS011;1350;42.134;24.708;2023-07-16T11:26:35;15.73;;;12.70;;
2680;SDS011;1350;42.134;24.708;2023-07-16T11:29:07;17.77;;;11.90;;
2680;SDS011;1350;42.134;24.708;2023-07-16T11:31:39;20.97;;;13.40;;
2680;SDS011;1350;42.134;24.708;2023-07-16T11:34:07;13.53;;;11.30;;
2680;SDS011;1350;42.134;24.708;2023-07-16T11:36:33;15.80;;;12.57;;
2680;SDS011;1350;42.134;24.708;2023-07-16T11:39:02;14.07;;;12.23;;
2680;SDS011;1350;42.134;24.708;2023-07-16T11:41:29;12.97;;;11.63;;
2680;SDS011;1350;42.134;24.708;2023-07-16T11:43:59;12.97;;;10.27;;
2680;SDS011;1350;42.134;24.708;2023-07-16T11:46:30;18.27;;;12.87;;
2680;SDS011;1350;42.134;24.708;2023-07-16T11:48:57;32.40;;;17.40;;
2680;SDS011;1350;42.134;24.708;2023-07-16T11:51:24;17.80;;;13.80;;
2680;SDS011;1350;42.134;24.708;2023-07-16T11:53:51;14.53;;;12.67;;
2680;SDS011;1350;42.134;24.708;2023-07-16T11:56:17;16.53;;;14.50;;
2680;SDS011;1350;42.134;24.708;2023-07-16T11:58:44;16.17;;;13.80;;
2680;SDS011;1350;42.134;24.708;2023-07-16T12:01:11;17.20;;;13.70;;
2680;SDS011;1350;42.134;24.708;2023-07-16T12:03:41;15.73;;;12.27;;
2680;SDS011;1350;42.134;24.708;2023-07-16T12:06:08;16.27;;;11.87;;
2680;SDS011;1350;42.134;24.708;2023-07-16T12:08:34;14.20;;;12.80;;
2680;SDS011;1350;42.134;24.708;2023-07-16T12:11:01;11.77;;;10.57;;
2680;SDS011;1350;42.134;24.708;2023-07-16T12:13:28;13.63;;;12.00;;
2680;SDS011;1350;42.134;24.708;2023-07-16T12:15:55;12.47;;;10.50;;
2680;SDS011;1350;42.134;24.708;2023-07-16T12:18:22;18.63;;;11.77;;
2680;SDS011;1350;42.134;24.708;2023-07-16T12:20:50;14.53;;;12.10;;
2680;SDS011;1350;42.134;24.708;2023-07-16T12:23:16;14.03;;;12.50;;
2680;SDS011;1350;42.134;24.708;2023-07-16T12:25:43;17.20;;;11.97;;
2680;SDS011;1350;42.134;24.708;2023-07-16T12:28:10;15.67;;;12.30;;
2680;SDS011;1350;42.134;24.708;2023-07-16T12:30:37;15.40;;;12.23;;
2680;SDS011;1350;42.134;24.708;2023-07-16T12:33:04;17.63;;;11.87;;
2680;SDS011;1350;42.134;24.708;2023-07-16T12:35:30;13.43;;;11.00;;
2680;SDS011;1350;42.134;24.708;2023-07-16T12:37:58;16.87;;;13.60;;
2680;SDS011;1350;42.134;24.708;2023-07-16T12:40:27;11.93;;;10.73;;
2680;SDS011;1350;42.134;24.708;2023-07-16T12:42:55;14.20;;;11.43;;
2680;SDS011;1350;42.134;24.708;2023-07-16T12:45:22;15.10;;;11.10;;
2680;SDS011;1350;42.134;24.708;2023-07-16T12:47:49;17.47;;;13.17;;
2680;SDS011;1350;42.134;24.708;2023-07-16T12:50:15;13.83;;;12.33;;
2680;SDS011;1350;42.134;24.708;2023-07-16T12:52:42;16.00;;;12.53;;
2680;SDS011;1350;42.134;24.708;2023-07-16T12:55:10;17.80;;;12.50;;
2680;SDS011;1350;42.134;24.708;2023-07-16T12:57:38;15.83;;;13.97;;
2680;SDS011;1350;42.134;24.708;2023-07-16T13:00:06;15.17;;;12.40;;
2680;SDS011;1350;42.134;24.708;2023-07-16T13:02:34;13.17;;;11.63;;
2680;SDS011;1350;42.134;24.708;2023-07-16T13:05:02;14.10;;;12.60;;
2680;SDS011;1350;42.134;24.708;2023-07-16T13:07:29;17.03;;;12.80;;
2680;SDS011;1350;42.134;24.708;2023-07-16T13:09:56;15.20;;;13.50;;
2680;SDS011;1350;42.134;24.708;2023-07-16T13:12:24;15.83;;;12.93;;
2680;SDS011;1350;42.134;24.708;2023-07-16T13:14:51;18.43;;;13.50;;
2680;SDS011;1350;42.134;24.708;2023-07-16T13:17:18;21.20;;;13.80;;
2680;SDS011;1350;42.134;24.708;2023-07-16T13:19:45;16.30;;;14.10;;
2680;SDS011;1350;42.134;24.708;2023-07-16T13:22:12;14.70;;;13.10;;
2680;SDS011;1350;42.134;24.708;2023-07-16T13:24:39;20.17;;;15.13;;
2680;SDS011;1350;42.134;24.708;2023-07-16T13:27:06;16.53;;;13.90;;
2680;SDS011;1350;42.134;24.708;2023-07-16T13:29:36;15.23;;;13.70;;
2680;SDS011;1350;42.134;24.708;2023-07-16T13:32:03;15.50;;;13.57;;
2680;SDS011;1350;42.134;24.708;2023-07-16T13:34:30;16.83;;;14.70;;
2680;SDS011;1350;42.134;24.708;2023-07-16T13:36:57;16.23;;;14.60;;
2680;SDS011;1350;42.134;24.708;2023-07-16T13:39:24;17.03;;;13.90;;
2680;SDS011;1350;42.134;24.708;2023-07-16T13:41:51;14.63;;;13.10;;
2680;SDS011;1350;42.134;24.708;2023-07-16T13:44:17;16.40;;;14.70;;
2680;SDS011;1350;42.134;24.708;2023-07-16T13:46:45;18.37;;;13.47;;
2680;SDS011;1350;42.134;24.708;2023-07-16T13:49:12;15.30;;;13.43;;
2680;SDS011;1350;42.134;24.708;2023-07-16T13:51:39;17.60;;;13.53;;
2680;SDS011;1350;42.134;24.708;2023-07-16T13:54:06;17.30;;;12.83;;
2680;SDS011;1350;42.134;24.708;2023-07-16T13:56:33;16.20;;;14.60;;
2680;SDS011;1350;42.134;24.708;2023-07-16T13:58:59;16.00;;;14.50;;
2680;SDS011;1350;42.134;24.708;2023-07-16T14:01:26;16.60;;;14.30;;
2680;SDS011;1350;42.134;24.708;2023-07-16T14:03:54;17.90;;;13.30;;
2680;SDS011;1350;42.134;24.708;2023-07-16T14:06:21;16.87;;;15.07;;
2680;SDS011;1350;42.134;24.708;2023-07-16T14:08:48;22.13;;;12.80;;
2680;SDS011;1350;42.134;24.708;2023-07-16T14:11:15;17.23;;;13.63;;
2680;SDS011;1350;42.134;24.708;2023-07-16T14:13:43;15.70;;;12.90;;
2680;SDS011;1350;42.134;24.708;2023-07-16T14:16:10;19.37;;;12.63;;
2680;SDS011;1350;42.134;24.708;2023-07-16T14:18:37;15.20;;;13.10;;
2680;SDS011;1350;42.134;24.708;2023-07-16T14:21:05;15.33;;;13.40;;
2680;SDS011;1350;42.134;24.708;2023-07-16T14:23:32;15.23;;;13.63;;
2680;SDS011;1350;42.134;24.708;2023-07-16T14:25:58;15.33;;;13.83;;
2680;SDS011;1350;42.134;24.708;2023-07-16T14:28:25;13.50;;;12.10;;
2680;SDS011;1350;42.134;24.708;2023-07-16T14:30:52;18.57;;;13.90;;
2680;SDS011;1350;42.134;24.708;2023-07-16T14:33:18;17.30;;;13.33;;
2680;SDS011;1350;42.134;24.708;2023-07-16T14:35:45;20.13;;;13.10;;
2680;SDS011;1350;42.134;24.708;2023-07-16T14:38:13;17.80;;;13.47;;
2680;SDS011;1350;42.134;24.708;2023-07-16T14:40:40;21.77;;;12.50;;
2680;SDS011;1350;42.134;24.708;2023-07-16T14:43:07;17.97;;;14.30;;
2680;SDS011;1350;42.134;24.708;2023-07-16T14:45:34;14.27;;;12.13;;
2680;SDS011;1350;42.134;24.708;2023-07-16T14:48:01;16.60;;;12.97;;